Main page
METAR-TAF:

METAR-TAF

Airports :

Mary International Airport

Mary, Turkmenistan

latitude: 37-36-24N, longitude: 061-54-05E, elevation: 222 m

Current weather observation

The report was made 45 minutes ago, at 22:00 UTC
Wind 6 kt from the Northwest
Temperature 24°C
Humidity 36%
Pressure 1009 hPa
Visibility: 6000 m

METAR: UTAM 052200Z 32006KT 6000 NSC 24/08 Q1009 R88/CLRD70 NOSIG

Time: 03:45 (22:45 UTC)

Forecast

The report was made 6 hours and 15 minutes ago, at 16:30 UTC
Forecast valid from 05 at 18 UTC to 06 at 18 UTC
Wind 12 kt from the North
Visibility: 6000 m
Temporary
from 05 at 18 UTC to 05 at 21 UTC
Wind 12 kt from the West/Northwest
Temporary
from 05 at 21 UTC to 06 at 04 UTC
Wind 4 kt from variable directions
Visibility: 3000 m
haze
Temporary
from 06 at 06 UTC to 06 at 13 UTC
Wind 14 kt from the Northwest with gusts up to 24 kt
Visibility: 3000 m
Low drifting dust

TAF: UTAM 051630Z 0518/0618 35012KT 6000 NSC TEMPO 0518/0521 30012KT TEMPO 0521/0604 VRB04KT 3000 HZ TEMPO 0606/0613 32014G24KT 3000 DRDU

Weather observations and forecasts of more than 4000 airports (METAR and TAF reports).

The available stations are represented by yellow and red dots on the map.

Hover mouse over dot to see the name of the station.

Then click to see weather observations and forecasts.

To change the map : click on the green buttons with a black cross to zoom in, on the green button with a dash to zoom out, or on the green arrows for adjacent maps.


METAR-TAF: